sensor_id;sensor_type;location;lat;lon;timestamp;P1;durP1;ratioP1;P2;durP2;ratioP2
62123;SDS011;48110;47.532;19.078;2023-07-28T00:01:48;3.53;;;2.33;;
62123;SDS011;48110;47.532;19.078;2023-07-28T00:04:51;6.50;;;3.53;;
62123;SDS011;48110;47.532;19.078;2023-07-28T00:07:54;9.50;;;4.37;;
62123;SDS011;48110;47.532;19.078;2023-07-28T00:10:57;11.95;;;4.90;;
62123;SDS011;48110;47.532;19.078;2023-07-28T00:13:59;15.10;;;5.62;;
62123;SDS011;48110;47.532;19.078;2023-07-28T00:17:03;10.30;;;4.90;;
62123;SDS011;48110;47.532;19.078;2023-07-28T00:20:05;10.98;;;4.60;;
62123;SDS011;48110;47.532;19.078;2023-07-28T00:23:11;9.80;;;5.00;;
62123;SDS011;48110;47.532;19.078;2023-07-28T00:26:14;10.25;;;4.18;;
62123;SDS011;48110;47.532;19.078;2023-07-28T00:29:17;6.70;;;3.87;;
62123;SDS011;48110;47.532;19.078;2023-07-28T00:32:20;6.15;;;3.20;;
62123;SDS011;48110;47.532;19.078;2023-07-28T00:35:23;8.30;;;3.22;;
62123;SDS011;48110;47.532;19.078;2023-07-28T00:38:27;7.30;;;2.40;;
62123;SDS011;48110;47.532;19.078;2023-07-28T00:41:31;7.70;;;2.37;;
62123;SDS011;48110;47.532;19.078;2023-07-28T00:44:34;3.83;;;1.83;;
62123;SDS011;48110;47.532;19.078;2023-07-28T00:47:38;3.95;;;1.90;;
62123;SDS011;48110;47.532;19.078;2023-07-28T00:50:42;3.05;;;1.92;;
62123;SDS011;48110;47.532;19.078;2023-07-28T00:53:50;5.57;;;2.10;;
62123;SDS011;48110;47.532;19.078;2023-07-28T00:56:55;5.32;;;2.00;;
62123;SDS011;48110;47.532;19.078;2023-07-28T00:59:58;3.53;;;1.95;;
62123;SDS011;48110;47.532;19.078;2023-07-28T01:03:03;3.35;;;2.03;;
62123;SDS011;48110;47.532;19.078;2023-07-28T01:16:02;4.22;;;1.62;;
62123;SDS011;48110;47.532;19.078;2023-07-28T01:19:05;4.68;;;1.60;;
62123;SDS011;48110;47.532;19.078;2023-07-28T01:22:30;3.22;;;1.80;;
62123;SDS011;48110;47.532;19.078;2023-07-28T01:29:08;6.57;;;1.83;;
62123;SDS011;48110;47.532;19.078;2023-07-28T01:32:13;4.65;;;1.70;;
62123;SDS011;48110;47.532;19.078;2023-07-28T01:35:16;5.07;;;2.00;;
62123;SDS011;48110;47.532;19.078;2023-07-28T01:38:19;5.07;;;2.20;;
62123;SDS011;48110;47.532;19.078;2023-07-28T01:41:22;4.20;;;2.10;;
62123;SDS011;48110;47.532;19.078;2023-07-28T01:44:25;4.05;;;2.12;;
62123;SDS011;48110;47.532;19.078;2023-07-28T01:47:28;4.60;;;2.00;;
62123;SDS011;48110;47.532;19.078;2023-07-28T01:50:32;3.95;;;2.00;;
62123;SDS011;48110;47.532;19.078;2023-07-28T01:53:34;4.25;;;1.95;;
62123;SDS011;48110;47.532;19.078;2023-07-28T01:56:37;3.67;;;2.08;;
62123;SDS011;48110;47.532;19.078;2023-07-28T01:59:40;5.32;;;2.17;;
62123;SDS011;48110;47.532;19.078;2023-07-28T02:02:43;4.62;;;1.83;;
62123;SDS011;48110;47.532;19.078;2023-07-28T02:05:46;4.00;;;2.00;;
62123;SDS011;48110;47.532;19.078;2023-07-28T02:08:49;3.33;;;2.17;;
62123;SDS011;48110;47.532;19.078;2023-07-28T02:11:52;5.10;;;2.15;;
62123;SDS011;48110;47.532;19.078;2023-07-28T02:14:55;4.40;;;2.00;;
62123;SDS011;48110;47.532;19.078;2023-07-28T02:17:58;5.82;;;1.85;;
62123;SDS011;48110;47.532;19.078;2023-07-28T02:21:01;3.58;;;1.83;;
62123;SDS011;48110;47.532;19.078;2023-07-28T02:24:04;3.33;;;1.80;;
62123;SDS011;48110;47.532;19.078;2023-07-28T02:27:07;5.47;;;2.10;;
62123;SDS011;48110;47.532;19.078;2023-07-28T02:30:10;3.05;;;1.90;;
62123;SDS011;48110;47.532;19.078;2023-07-28T02:33:13;3.28;;;2.10;;
62123;SDS011;48110;47.532;19.078;2023-07-28T02:36:16;4.75;;;1.90;;
62123;SDS011;48110;47.532;19.078;2023-07-28T02:39:19;3.67;;;1.92;;
62123;SDS011;48110;47.532;19.078;2023-07-28T02:42:23;4.93;;;2.15;;
62123;SDS011;48110;47.532;19.078;2023-07-28T02:45:27;5.20;;;2.20;;
62123;SDS011;48110;47.532;19.078;2023-07-28T02:48:30;3.92;;;1.92;;
62123;SDS011;48110;47.532;19.078;2023-07-28T02:51:32;6.65;;;2.05;;
62123;SDS011;48110;47.532;19.078;2023-07-28T02:54:37;3.22;;;2.12;;
62123;SDS011;48110;47.532;19.078;2023-07-28T02:57:40;3.87;;;1.80;;
62123;SDS011;48110;47.532;19.078;2023-07-28T03:00:45;5.00;;;2.08;;
62123;SDS011;48110;47.532;19.078;2023-07-28T03:03:49;5.00;;;2.12;;
62123;SDS011;48110;47.532;19.078;2023-07-28T03:06:52;5.80;;;2.08;;
62123;SDS011;48110;47.532;19.078;2023-07-28T03:09:56;3.80;;;2.05;;
62123;SDS011;48110;47.532;19.078;2023-07-28T03:13:00;6.80;;;2.22;;
62123;SDS011;48110;47.532;19.078;2023-07-28T03:16:03;3.95;;;1.95;;
62123;SDS011;48110;47.532;19.078;2023-07-28T03:19:07;4.32;;;2.08;;
62123;SDS011;48110;47.532;19.078;2023-07-28T03:22:10;3.58;;;2.10;;
62123;SDS011;48110;47.532;19.078;2023-07-28T03:25:13;6.03;;;2.30;;
62123;SDS011;48110;47.532;19.078;2023-07-28T03:28:16;3.83;;;2.20;;
62123;SDS011;48110;47.532;19.078;2023-07-28T03:31:20;5.43;;;2.17;;
62123;SDS011;48110;47.532;19.078;2023-07-28T03:34:23;4.05;;;2.12;;
62123;SDS011;48110;47.532;19.078;2023-07-28T03:37:27;5.12;;;2.22;;
62123;SDS011;48110;47.532;19.078;2023-07-28T03:40:29;4.30;;;2.00;;
62123;SDS011;48110;47.532;19.078;2023-07-28T03:43:33;5.85;;;2.05;;
62123;SDS011;48110;47.532;19.078;2023-07-28T03:46:35;3.20;;;1.80;;
62123;SDS011;48110;47.532;19.078;2023-07-28T03:49:39;3.35;;;2.05;;
62123;SDS011;48110;47.532;19.078;2023-07-28T03:52:42;2.50;;;1.83;;
62123;SDS011;48110;47.532;19.078;2023-07-28T03:55:45;5.62;;;2.08;;
62123;SDS011;48110;47.532;19.078;2023-07-28T03:58:48;7.28;;;2.70;;
62123;SDS011;48110;47.532;19.078;2023-07-28T04:01:51;6.15;;;2.10;;
62123;SDS011;48110;47.532;19.078;2023-07-28T04:04:56;3.72;;;2.20;;
62123;SDS011;48110;47.532;19.078;2023-07-28T04:07:59;5.75;;;2.12;;
62123;SDS011;48110;47.532;19.078;2023-07-28T04:11:02;3.87;;;2.00;;
62123;SDS011;48110;47.532;19.078;2023-07-28T04:14:05;4.07;;;1.80;;
62123;SDS011;48110;47.532;19.078;2023-07-28T04:17:09;5.50;;;1.70;;
62123;SDS011;48110;47.532;19.078;2023-07-28T04:20:13;8.40;;;1.85;;
62123;SDS011;48110;47.532;19.078;2023-07-28T04:23:17;2.87;;;1.90;;
62123;SDS011;48110;47.532;19.078;2023-07-28T04:26:20;2.70;;;1.80;;
62123;SDS011;48110;47.532;19.078;2023-07-28T04:29:24;4.22;;;2.10;;
62123;SDS011;48110;47.532;19.078;2023-07-28T04:32:28;3.75;;;1.98;;
62123;SDS011;48110;47.532;19.078;2023-07-28T04:35:32;4.25;;;1.90;;
62123;SDS011;48110;47.532;19.078;2023-07-28T04:38:35;3.80;;;2.00;;
62123;SDS011;48110;47.532;19.078;2023-07-28T04:41:38;5.00;;;2.35;;
62123;SDS011;48110;47.532;19.078;2023-07-28T04:44:41;5.57;;;1.95;;
62123;SDS011;48110;47.532;19.078;2023-07-28T04:47:45;4.30;;;1.95;;
62123;SDS011;48110;47.532;19.078;2023-07-28T04:50:48;3.35;;;1.60;;
62123;SDS011;48110;47.532;19.078;2023-07-28T04:53:51;3.03;;;1.80;;
62123;SDS011;48110;47.532;19.078;2023-07-28T04:56:57;2.75;;;1.67;;
62123;SDS011;48110;47.532;19.078;2023-07-28T05:00:01;6.30;;;1.83;;
62123;SDS011;48110;47.532;19.078;2023-07-28T05:03:04;5.37;;;3.03;;
62123;SDS011;48110;47.532;19.078;2023-07-28T05:06:09;6.30;;;1.70;;
62123;SDS011;48110;47.532;19.078;2023-07-28T05:09:12;2.65;;;1.77;;
62123;SDS011;48110;47.532;19.078;2023-07-28T05:12:15;3.25;;;1.80;;
62123;SDS011;48110;47.532;19.078;2023-07-28T05:15:18;6.78;;;2.03;;
62123;SDS011;48110;47.532;19.078;2023-07-28T05:18:21;3.60;;;1.62;;
62123;SDS011;48110;47.532;19.078;2023-07-28T05:21:25;4.70;;;1.67;;
62123;SDS011;48110;47.532;19.078;2023-07-28T05:24:28;4.95;;;1.80;;
62123;SDS011;48110;47.532;19.078;2023-07-28T05:27:31;5.97;;;1.92;;
62123;SDS011;48110;47.532;19.078;2023-07-28T05:30:34;4.32;;;1.98;;
62123;SDS011;48110;47.532;19.078;2023-07-28T05:33:40;5.07;;;1.90;;
62123;SDS011;48110;47.532;19.078;2023-07-28T05:36:52;3.28;;;1.77;;
62123;SDS011;48110;47.532;19.078;2023-07-28T05:39:55;5.03;;;2.00;;
62123;SDS011;48110;47.532;19.078;2023-07-28T05:42:58;5.07;;;1.73;;
62123;SDS011;48110;47.532;19.078;2023-07-28T05:46:01;5.47;;;1.98;;
62123;SDS011;48110;47.532;19.078;2023-07-28T05:49:05;5.53;;;1.80;;
62123;SDS011;48110;47.532;19.078;2023-07-28T05:52:08;5.05;;;2.28;;
62123;SDS011;48110;47.532;19.078;2023-07-28T05:55:11;4.85;;;1.73;;
62123;SDS011;48110;47.532;19.078;2023-07-28T05:58:14;6.00;;;2.00;;
62123;SDS011;48110;47.532;19.078;2023-07-28T06:01:17;3.92;;;1.60;;
62123;SDS011;48110;47.532;19.078;2023-07-28T06:04:25;10.98;;;1.98;;
62123;SDS011;48110;47.532;19.078;2023-07-28T06:07:28;4.18;;;1.67;;
62123;SDS011;48110;47.532;19.078;2023-07-28T06:10:31;9.77;;;2.10;;
62123;SDS011;48110;47.532;19.078;2023-07-28T06:13:34;6.90;;;1.80;;
62123;SDS011;48110;47.532;19.078;2023-07-28T06:16:37;3.58;;;1.60;;
62123;SDS011;48110;47.532;19.078;2023-07-28T06:19:40;3.75;;;1.77;;
62123;SDS011;48110;47.532;19.078;2023-07-28T06:22:43;6.43;;;1.90;;
62123;SDS011;48110;47.532;19.078;2023-07-28T06:25:46;9.35;;;1.58;;
62123;SDS011;48110;47.532;19.078;2023-07-28T06:28:49;2.85;;;1.70;;
62123;SDS011;48110;47.532;19.078;2023-07-28T06:31:51;4.57;;;1.73;;
62123;SDS011;48110;47.532;19.078;2023-07-28T06:34:55;3.42;;;1.70;;
62123;SDS011;48110;47.532;19.078;2023-07-28T06:37:57;6.70;;;1.98;;
62123;SDS011;48110;47.532;19.078;2023-07-28T06:41:02;6.47;;;1.85;;
62123;SDS011;48110;47.532;19.078;2023-07-28T06:44:06;6.45;;;2.17;;
62123;SDS011;48110;47.532;19.078;2023-07-28T06:47:11;6.68;;;1.98;;
62123;SDS011;48110;47.532;19.078;2023-07-28T06:50:14;5.22;;;1.77;;
62123;SDS011;48110;47.532;19.078;2023-07-28T06:53:17;5.90;;;2.08;;
62123;SDS011;48110;47.532;19.078;2023-07-28T06:56:20;11.52;;;2.05;;
62123;SDS011;48110;47.532;19.078;2023-07-28T07:46:24;4.30;;;1.98;;
62123;SDS011;48110;47.532;19.078;2023-07-28T07:49:28;10.18;;;2.42;;
62123;SDS011;48110;47.532;19.078;2023-07-28T07:52:30;4.65;;;1.70;;
62123;SDS011;48110;47.532;19.078;2023-07-28T07:55:33;5.90;;;1.70;;
62123;SDS011;48110;47.532;19.078;2023-07-28T07:58:36;2.80;;;1.60;;
62123;SDS011;48110;47.532;19.078;2023-07-28T08:01:39;5.60;;;1.70;;
62123;SDS011;48110;47.532;19.078;2023-07-28T08:04:42;7.37;;;2.20;;
62123;SDS011;48110;47.532;19.078;2023-07-28T08:07:45;4.32;;;1.65;;
62123;SDS011;48110;47.532;19.078;2023-07-28T08:10:50;5.45;;;2.03;;
62123;SDS011;48110;47.532;19.078;2023-07-28T08:13:52;6.57;;;1.77;;
62123;SDS011;48110;47.532;19.078;2023-07-28T08:16:55;4.10;;;1.50;;
62123;SDS011;48110;47.532;19.078;2023-07-28T08:19:58;5.80;;;2.00;;
62123;SDS011;48110;47.532;19.078;2023-07-28T08:23:01;4.10;;;1.62;;
62123;SDS011;48110;47.532;19.078;2023-07-28T08:26:04;3.70;;;1.67;;
62123;SDS011;48110;47.532;19.078;2023-07-28T08:29:06;4.30;;;1.95;;
62123;SDS011;48110;47.532;19.078;2023-07-28T08:32:09;2.30;;;1.80;;
62123;SDS011;48110;47.532;19.078;2023-07-28T08:35:12;6.32;;;2.15;;
62123;SDS011;48110;47.532;19.078;2023-07-28T08:38:14;5.82;;;2.80;;
62123;SDS011;48110;47.532;19.078;2023-07-28T08:41:19;2.70;;;1.80;;
62123;SDS011;48110;47.532;19.078;2023-07-28T08:44:22;5.93;;;1.67;;
62123;SDS011;48110;47.532;19.078;2023-07-28T08:47:24;6.93;;;2.03;;
62123;SDS011;48110;47.532;19.078;2023-07-28T08:50:27;3.25;;;1.80;;
62123;SDS011;48110;47.532;19.078;2023-07-28T08:53:30;5.95;;;1.87;;
62123;SDS011;48110;47.532;19.078;2023-07-28T08:56:33;7.37;;;2.00;;
62123;SDS011;48110;47.532;19.078;2023-07-28T08:59:36;5.87;;;1.80;;
62123;SDS011;48110;47.532;19.078;2023-07-28T09:02:44;8.13;;;1.90;;
62123;SDS011;48110;47.532;19.078;2023-07-28T09:05:48;5.85;;;1.70;;
62123;SDS011;48110;47.532;19.078;2023-07-28T09:08:50;5.93;;;1.75;;
62123;SDS011;48110;47.532;19.078;2023-07-28T09:11:53;4.05;;;1.70;;
62123;SDS011;48110;47.532;19.078;2023-07-28T09:14:56;8.77;;;1.62;;
62123;SDS011;48110;47.532;19.078;2023-07-28T09:18:00;4.45;;;1.55;;
62123;SDS011;48110;47.532;19.078;2023-07-28T09:21:03;7.07;;;1.67;;
62123;SDS011;48110;47.532;19.078;2023-07-28T09:24:06;3.90;;;1.50;;
62123;SDS011;48110;47.532;19.078;2023-07-28T09:27:19;4.10;;;1.60;;
62123;SDS011;48110;47.532;19.078;2023-07-28T09:30:26;5.45;;;1.50;;
62123;SDS011;48110;47.532;19.078;2023-07-28T09:33:29;4.53;;;1.50;;
62123;SDS011;48110;47.532;19.078;2023-07-28T09:36:37;6.68;;;1.37;;
62123;SDS011;48110;47.532;19.078;2023-07-28T09:39:40;5.82;;;1.55;;
62123;SDS011;48110;47.532;19.078;2023-07-28T09:42:44;3.15;;;1.58;;
62123;SDS011;48110;47.532;19.078;2023-07-28T09:45:56;2.65;;;1.42;;
62123;SDS011;48110;47.532;19.078;2023-07-28T09:49:00;3.95;;;1.60;;
62123;SDS011;48110;47.532;19.078;2023-07-28T09:52:09;2.70;;;1.45;;
62123;SDS011;48110;47.532;19.078;2023-07-28T09:55:14;2.17;;;1.50;;
62123;SDS011;48110;47.532;19.078;2023-07-28T09:58:18;5.35;;;1.58;;
62123;SDS011;48110;47.532;19.078;2023-07-28T10:01:24;6.10;;;1.42;;
62123;SDS011;48110;47.532;19.078;2023-07-28T10:04:29;4.95;;;1.40;;
62123;SDS011;48110;47.532;19.078;2023-07-28T10:07:37;1.67;;;1.30;;
62123;SDS011;48110;47.532;19.078;2023-07-28T10:10:43;8.32;;;1.70;;
62123;SDS011;48110;47.532;19.078;2023-07-28T10:13:46;4.43;;;1.40;;
62123;SDS011;48110;47.532;19.078;2023-07-28T10:16:50;2.62;;;1.48;;
62123;SDS011;48110;47.532;19.078;2023-07-28T10:19:52;7.50;;;1.58;;
62123;SDS011;48110;47.532;19.078;2023-07-28T10:23:02;2.22;;;1.20;;
62123;SDS011;48110;47.532;19.078;2023-07-28T10:26:06;2.00;;;1.40;;
62123;SDS011;48110;47.532;19.078;2023-07-28T10:29:13;3.15;;;1.40;;
62123;SDS011;48110;47.532;19.078;2023-07-28T10:32:28;1.70;;;1.30;;
62123;SDS011;48110;47.532;19.078;2023-07-28T10:35:36;3.83;;;1.45;;
62123;SDS011;48110;47.532;19.078;2023-07-28T10:42:10;4.78;;;1.70;;
62123;SDS011;48110;47.532;19.078;2023-07-28T10:45:13;4.15;;;1.60;;
62123;SDS011;48110;47.532;19.078;2023-07-28T10:48:16;3.80;;;1.37;;
62123;SDS011;48110;47.532;19.078;2023-07-28T10:51:22;3.15;;;1.60;;
62123;SDS011;48110;47.532;19.078;2023-07-28T10:54:28;6.50;;;1.45;;
62123;SDS011;48110;47.532;19.078;2023-07-28T10:57:33;4.45;;;1.40;;
62123;SDS011;48110;47.532;19.078;2023-07-28T11:00:38;8.52;;;1.77;;
62123;SDS011;48110;47.532;19.078;2023-07-28T11:03:41;6.40;;;1.70;;
62123;SDS011;48110;47.532;19.078;2023-07-28T11:06:45;5.40;;;1.40;;
62123;SDS011;48110;47.532;19.078;2023-07-28T11:09:50;6.62;;;1.45;;
62123;SDS011;48110;47.532;19.078;2023-07-28T11:12:53;5.00;;;1.50;;
62123;SDS011;48110;47.532;19.078;2023-07-28T11:15:57;7.32;;;1.60;;
62123;SDS011;48110;47.532;19.078;2023-07-28T11:19:08;7.78;;;1.50;;
62123;SDS011;48110;47.532;19.078;2023-07-28T11:22:28;4.68;;;1.50;;
62123;SDS011;48110;47.532;19.078;2023-07-28T11:25:31;6.12;;;1.60;;
62123;SDS011;48110;47.532;19.078;2023-07-28T11:28:35;3.60;;;1.48;;
62123;SDS011;48110;47.532;19.078;2023-07-28T11:31:38;6.28;;;1.77;;
62123;SDS011;48110;47.532;19.078;2023-07-28T11:34:43;4.20;;;1.40;;
62123;SDS011;48110;47.532;19.078;2023-07-28T11:37:49;5.68;;;1.42;;
62123;SDS011;48110;47.532;19.078;2023-07-28T11:40:54;3.97;;;1.50;;
62123;SDS011;48110;47.532;19.078;2023-07-28T11:43:57;9.70;;;1.50;;
62123;SDS011;48110;47.532;19.078;2023-07-28T11:47:00;2.25;;;1.30;;
62123;SDS011;48110;47.532;19.078;2023-07-28T11:50:10;4.12;;;1.70;;
62123;SDS011;48110;47.532;19.078;2023-07-28T11:53:24;4.18;;;1.58;;
62123;SDS011;48110;47.532;19.078;2023-07-28T11:56:30;4.55;;;1.80;;
62123;SDS011;48110;47.532;19.078;2023-07-28T11:59:33;3.85;;;1.42;;
62123;SDS011;48110;47.532;19.078;2023-07-28T12:02:37;2.17;;;1.33;;
62123;SDS011;48110;47.532;19.078;2023-07-28T12:05:41;8.32;;;1.62;;
62123;SDS011;48110;47.532;19.078;2023-07-28T12:09:14;2.80;;;1.58;;
62123;SDS011;48110;47.532;19.078;2023-07-28T12:12:18;2.90;;;1.50;;
62123;SDS011;48110;47.532;19.078;2023-07-28T12:15:26;4.60;;;1.40;;
62123;SDS011;48110;47.532;19.078;2023-07-28T12:18:41;11.75;;;1.60;;
62123;SDS011;48110;47.532;19.078;2023-07-28T12:21:51;5.25;;;1.80;;
62123;SDS011;48110;47.532;19.078;2023-07-28T12:24:54;5.47;;;1.70;;
62123;SDS011;48110;47.532;19.078;2023-07-28T12:27:56;6.25;;;1.70;;
62123;SDS011;48110;47.532;19.078;2023-07-28T12:30:59;6.20;;;1.48;;
62123;SDS011;48110;47.532;19.078;2023-07-28T12:34:03;3.60;;;1.50;;
62123;SDS011;48110;47.532;19.078;2023-07-28T12:37:07;2.00;;;1.37;;
62123;SDS011;48110;47.532;19.078;2023-07-28T12:40:13;2.35;;;1.20;;
62123;SDS011;48110;47.532;19.078;2023-07-28T12:43:19;2.80;;;1.33;;
62123;SDS011;48110;47.532;19.078;2023-07-28T12:46:26;2.85;;;1.50;;
62123;SDS011;48110;47.532;19.078;2023-07-28T12:49:31;3.78;;;1.45;;
62123;SDS011;48110;47.532;19.078;2023-07-28T12:52:34;1.73;;;1.35;;
62123;SDS011;48110;47.532;19.078;2023-07-28T12:55:40;4.57;;;1.45;;
62123;SDS011;48110;47.532;19.078;2023-07-28T12:59:01;3.58;;;1.50;;
62123;SDS011;48110;47.532;19.078;2023-07-28T13:02:07;4.22;;;1.35;;
62123;SDS011;48110;47.532;19.078;2023-07-28T13:05:10;5.80;;;1.23;;
62123;SDS011;48110;47.532;19.078;2023-07-28T13:08:15;3.62;;;1.20;;
62123;SDS011;48110;47.532;19.078;2023-07-28T13:11:18;4.35;;;1.70;;
62123;SDS011;48110;47.532;19.078;2023-07-28T13:14:21;2.50;;;1.48;;
62123;SDS011;48110;47.532;19.078;2023-07-28T13:17:24;2.90;;;1.40;;
62123;SDS011;48110;47.532;19.078;2023-07-28T13:20:30;1.40;;;1.30;;
62123;SDS011;48110;47.532;19.078;2023-07-28T13:23:33;2.97;;;1.42;;
62123;SDS011;48110;47.532;19.078;2023-07-28T13:26:36;4.53;;;1.45;;
62123;SDS011;48110;47.532;19.078;2023-07-28T13:29:39;3.92;;;1.62;;
62123;SDS011;48110;47.532;19.078;2023-07-28T13:32:42;4.37;;;1.50;;
62123;SDS011;48110;47.532;19.078;2023-07-28T13:35:44;2.30;;;1.40;;
62123;SDS011;48110;47.532;19.078;2023-07-28T13:38:47;3.00;;;1.67;;
62123;SDS011;48110;47.532;19.078;2023-07-28T13:41:51;2.67;;;1.50;;
62123;SDS011;48110;47.532;19.078;2023-07-28T13:44:54;3.72;;;1.80;;
62123;SDS011;48110;47.532;19.078;2023-07-28T13:48:00;2.83;;;1.50;;
62123;SDS011;48110;47.532;19.078;2023-07-28T13:51:03;2.08;;;1.65;;
62123;SDS011;48110;47.532;19.078;2023-07-28T13:54:05;2.78;;;1.55;;
62123;SDS011;48110;47.532;19.078;2023-07-28T13:57:11;6.45;;;1.60;;
62123;SDS011;48110;47.532;19.078;2023-07-28T14:00:15;4.12;;;1.67;;
62123;SDS011;48110;47.532;19.078;2023-07-28T14:03:18;3.15;;;1.50;;
62123;SDS011;48110;47.532;19.078;2023-07-28T14:06:21;2.40;;;1.70;;
62123;SDS011;48110;47.532;19.078;2023-07-28T14:09:24;2.87;;;1.30;;
62123;SDS011;48110;47.532;19.078;2023-07-28T14:12:26;6.35;;;1.70;;
62123;SDS011;48110;47.532;19.078;2023-07-28T14:15:29;3.92;;;2.03;;
62123;SDS011;48110;47.532;19.078;2023-07-28T14:18:32;2.35;;;1.62;;
62123;SDS011;48110;47.532;19.078;2023-07-28T14:21:35;3.37;;;1.52;;
62123;SDS011;48110;47.532;19.078;2023-07-28T14:24:41;5.70;;;1.70;;
62123;SDS011;48110;47.532;19.078;2023-07-28T14:27:44;4.80;;;1.60;;
62123;SDS011;48110;47.532;19.078;2023-07-28T14:30:47;4.53;;;1.70;;
62123;SDS011;48110;47.532;19.078;2023-07-28T14:33:51;1.98;;;1.40;;
62123;SDS011;48110;47.532;19.078;2023-07-28T14:36:53;3.03;;;1.60;;
62123;SDS011;48110;47.532;19.078;2023-07-28T14:39:57;7.07;;;1.67;;
62123;SDS011;48110;47.532;19.078;2023-07-28T14:43:00;2.53;;;1.40;;
62123;SDS011;48110;47.532;19.078;2023-07-28T14:46:03;2.00;;;1.62;;
62123;SDS011;48110;47.532;19.078;2023-07-28T14:49:06;2.42;;;1.45;;
62123;SDS011;48110;47.532;19.078;2023-07-28T14:52:09;2.72;;;1.45;;
62123;SDS011;48110;47.532;19.078;2023-07-28T14:55:11;3.17;;;1.60;;
62123;SDS011;48110;47.532;19.078;2023-07-28T14:58:18;4.18;;;1.58;;
62123;SDS011;48110;47.532;19.078;2023-07-28T15:01:20;2.97;;;1.40;;
62123;SDS011;48110;47.532;19.078;2023-07-28T15:04:23;3.62;;;1.80;;
62123;SDS011;48110;47.532;19.078;2023-07-28T15:07:26;3.15;;;1.65;;
62123;SDS011;48110;47.532;19.078;2023-07-28T15:10:30;5.80;;;1.65;;
62123;SDS011;48110;47.532;19.078;2023-07-28T15:13:33;6.47;;;1.52;;
62123;SDS011;48110;47.532;19.078;2023-07-28T15:16:36;3.75;;;1.52;;
62123;SDS011;48110;47.532;19.078;2023-07-28T15:19:41;4.68;;;1.50;;
62123;SDS011;48110;47.532;19.078;2023-07-28T15:22:44;1.95;;;1.50;;
62123;SDS011;48110;47.532;19.078;2023-07-28T15:25:47;6.05;;;1.40;;
62123;SDS011;48110;47.532;19.078;2023-07-28T15:28:50;4.55;;;1.77;;
62123;SDS011;48110;47.532;19.078;2023-07-28T15:31:53;3.60;;;1.62;;
62123;SDS011;48110;47.532;19.078;2023-07-28T15:34:57;3.67;;;1.70;;
62123;SDS011;48110;47.532;19.078;2023-07-28T15:38:00;5.22;;;1.70;;
62123;SDS011;48110;47.532;19.078;2023-07-28T15:41:03;5.55;;;1.60;;
62123;SDS011;48110;47.532;19.078;2023-07-28T15:44:06;5.05;;;1.50;;
62123;SDS011;48110;47.532;19.078;2023-07-28T15:47:09;3.35;;;1.62;;
62123;SDS011;48110;47.532;19.078;2023-07-28T15:50:11;3.80;;;1.65;;
62123;SDS011;48110;47.532;19.078;2023-07-28T15:53:14;3.60;;;1.35;;
62123;SDS011;48110;47.532;19.078;2023-07-28T15:56:17;3.62;;;1.52;;
62123;SDS011;48110;47.532;19.078;2023-07-28T15:59:20;3.40;;;1.80;;
62123;SDS011;48110;47.532;19.078;2023-07-28T16:02:22;5.15;;;1.87;;
62123;SDS011;48110;47.532;19.078;2023-07-28T16:05:25;5.18;;;1.65;;
62123;SDS011;48110;47.532;19.078;2023-07-28T16:08:28;3.70;;;1.85;;
62123;SDS011;48110;47.532;19.078;2023-07-28T16:11:31;2.85;;;1.60;;
62123;SDS011;48110;47.532;19.078;2023-07-28T16:14:35;2.47;;;1.62;;
62123;SDS011;48110;47.532;19.078;2023-07-28T16:17:38;3.97;;;1.55;;
62123;SDS011;48110;47.532;19.078;2023-07-28T16:20:40;33.47;;;2.72;;
62123;SDS011;48110;47.532;19.078;2023-07-28T16:23:44;26.23;;;3.50;;
62123;SDS011;48110;47.532;19.078;2023-07-28T16:26:46;10.93;;;3.17;;
62123;SDS011;48110;47.532;19.078;2023-07-28T16:29:50;4.43;;;2.10;;
62123;SDS011;48110;47.532;19.078;2023-07-28T16:32:53;18.30;;;4.80;;
62123;SDS011;48110;47.532;19.078;2023-07-28T16:35:56;7.45;;;3.03;;
62123;SDS011;48110;47.532;19.078;2023-07-28T16:38:59;8.98;;;2.90;;
62123;SDS011;48110;47.532;19.078;2023-07-28T16:42:02;8.80;;;3.22;;
62123;SDS011;48110;47.532;19.078;2023-07-28T16:45:05;6.78;;;2.95;;
62123;SDS011;48110;47.532;19.078;2023-07-28T16:48:09;7.10;;;3.12;;
62123;SDS011;48110;47.532;19.078;2023-07-28T16:51:11;5.78;;;3.17;;
62123;SDS011;48110;47.532;19.078;2023-07-28T16:54:14;7.32;;;3.12;;
62123;SDS011;48110;47.532;19.078;2023-07-28T16:57:17;6.90;;;3.60;;
62123;SDS011;48110;47.532;19.078;2023-07-28T17:00:20;6.43;;;3.60;;
62123;SDS011;48110;47.532;19.078;2023-07-28T17:03:24;8.00;;;3.25;;
62123;SDS011;48110;47.532;19.078;2023-07-28T17:06:29;7.57;;;3.85;;
62123;SDS011;48110;47.532;19.078;2023-07-28T17:09:32;7.47;;;3.62;;
62123;SDS011;48110;47.532;19.078;2023-07-28T17:12:35;5.18;;;2.97;;
62123;SDS011;48110;47.532;19.078;2023-07-28T17:15:37;7.30;;;3.17;;
62123;SDS011;48110;47.532;19.078;2023-07-28T17:18:42;6.80;;;2.90;;
62123;SDS011;48110;47.532;19.078;2023-07-28T17:21:49;8.05;;;2.67;;
62123;SDS011;48110;47.532;19.078;2023-07-28T17:24:52;5.90;;;2.72;;
62123;SDS011;48110;47.532;19.078;2023-07-28T17:27:55;6.82;;;3.10;;
62123;SDS011;48110;47.532;19.078;2023-07-28T17:30:58;5.15;;;3.00;;
62123;SDS011;48110;47.532;19.078;2023-07-28T17:34:01;6.53;;;2.85;;
62123;SDS011;48110;47.532;19.078;2023-07-28T17:37:04;7.53;;;3.28;;
62123;SDS011;48110;47.532;19.078;2023-07-28T17:40:08;5.25;;;2.83;;
62123;SDS011;48110;47.532;19.078;2023-07-28T17:43:14;5.07;;;3.40;;
62123;SDS011;48110;47.532;19.078;2023-07-28T17:46:17;5.97;;;3.40;;
62123;SDS011;48110;47.532;19.078;2023-07-28T17:49:21;5.40;;;3.25;;
62123;SDS011;48110;47.532;19.078;2023-07-28T17:52:23;6.57;;;2.90;;
62123;SDS011;48110;47.532;19.078;2023-07-28T17:55:26;8.45;;;3.65;;
62123;SDS011;48110;47.532;19.078;2023-07-28T17:58:29;6.72;;;3.60;;
62123;SDS011;48110;47.532;19.078;2023-07-28T18:01:31;5.32;;;3.33;;
62123;SDS011;48110;47.532;19.078;2023-07-28T18:04:35;6.80;;;3.80;;
62123;SDS011;48110;47.532;19.078;2023-07-28T18:07:37;5.37;;;3.72;;
62123;SDS011;48110;47.532;19.078;2023-07-28T18:10:40;7.62;;;3.50;;
62123;SDS011;48110;47.532;19.078;2023-07-28T18:13:43;7.20;;;4.00;;
62123;SDS011;48110;47.532;19.078;2023-07-28T18:16:46;10.90;;;4.18;;
62123;SDS011;48110;47.532;19.078;2023-07-28T18:19:49;5.65;;;4.03;;
62123;SDS011;48110;47.532;19.078;2023-07-28T18:22:53;6.65;;;4.40;;
62123;SDS011;48110;47.532;19.078;2023-07-28T18:25:56;8.73;;;4.40;;
62123;SDS011;48110;47.532;19.078;2023-07-28T18:28:59;8.77;;;4.07;;
62123;SDS011;48110;47.532;19.078;2023-07-28T18:32:01;5.95;;;4.43;;
62123;SDS011;48110;47.532;19.078;2023-07-28T18:35:04;10.13;;;4.25;;
62123;SDS011;48110;47.532;19.078;2023-07-28T18:38:07;7.70;;;3.60;;
62123;SDS011;48110;47.532;19.078;2023-07-28T18:41:10;5.85;;;3.90;;
62123;SDS011;48110;47.532;19.078;2023-07-28T18:44:13;7.50;;;3.60;;
62123;SDS011;48110;47.532;19.078;2023-07-28T18:47:16;5.43;;;3.47;;
62123;SDS011;48110;47.532;19.078;2023-07-28T18:50:22;4.57;;;3.10;;
62123;SDS011;48110;47.532;19.078;2023-07-28T18:53:24;6.20;;;3.35;;
62123;SDS011;48110;47.532;19.078;2023-07-28T18:56:27;4.97;;;3.37;;
62123;SDS011;48110;47.532;19.078;2023-07-28T18:59:30;7.53;;;3.50;;
62123;SDS011;48110;47.532;19.078;2023-07-28T19:02:32;5.40;;;3.05;;
62123;SDS011;48110;47.532;19.078;2023-07-28T19:05:35;4.90;;;2.87;;
62123;SDS011;48110;47.532;19.078;2023-07-28T19:08:38;3.60;;;3.00;;
62123;SDS011;48110;47.532;19.078;2023-07-28T19:11:45;8.60;;;3.40;;
62123;SDS011;48110;47.532;19.078;2023-07-28T19:14:47;4.80;;;3.25;;